WEATHER DATA

YESTERDAY
Time Temp. Dewp. Hum. Bar. 1h Prec. 24h Prec.
00:04 -0.6 -0.6 100 991.5 0.0000 0.0000
00:14 -0.6 -0.6 100 991.5 0.0000 0.0000
00:24 -0.4 -0.4 100 991.7 0.0000 0.0000
00:34 -0.3 -0.3 100 991.8 0.0000 0.0000
00:44 -0.3 -0.3 100 991.8 0.0000 0.0000
00:54 -0.2 -0.2 100 991.9 0.0000 0.0000
01:04 0 0 100 992.1 0.0000 0.0000
01:15 0 0 100 992.1 0.0000 0.0000
01:34 0.1 0.1 100 992.3 0.0000 0.0000
01:45 0.1 0.1 100 992.2 0.0000 0.0000
02:05 0 0 100 992.3 0.0000 0.0000
02:15 0 0 100 992.4 0.0000 0.0000
02:25 0 0 100 992.4 0.0000 0.0000
02:35 -0.2 -0.2 100 992.5 0.0000 0.0000
02:45 -0.3 -0.3 100 992.7 0.0000 0.0000
02:55 -0.5 -0.5 100 992.8 0.0000 0.0000
03:06 -0.6 -0.6 100 992.9 0.0000 0.0000
03:16 -0.7 -0.7 100 992.8 0.0000 0.0000
03:25 -0.8 -0.8 100 992.9 0.0000 0.0000
03:36 -0.9 -0.9 100 993.1 0.0000 0.0000
03:46 -1 -1 100 993 0.0000 0.0000
03:56 -1 -1 100 993 0.0000 0.0000
04:06 -1.1 -1.1 100 993.1 0.0000 0.0000
04:26 -1.1 -1.1 100 993.3 0.0000 0.0000
04:36 -1.1 -1.1 100 993.5 0.0000 0.0000
04:47 -1.2 -1.2 100 993.4 0.0000 0.0000
04:57 -1.2 -1.2 100 993.6 0.0000 0.0000
05:07 -1.3 -1.3 100 993.6 0.0000 0.0000
05:17 -1.3 -1.3 100 993.5 0.0000 0.0000
05:27 -1.2 -1.2 100 993.7 0.0000 0.0000
05:37 -1.1 -1.1 100 993.6 0.0000 0.0000
05:47 -0.9 -0.9 100 993.8 0.0000 0.0000
05:57 -0.8 -0.8 100 993.8 0.0000 0.0000
06:08 -0.7 -0.7 100 993.8 0.0000 0.0000
06:17 -0.5 -0.5 100 993.8 0.0000 0.0000
06:27 -0.5 -0.5 100 993.9 0.0000 0.0000
06:38 -0.4 -0.4 100 993.9 0.0000 0.0000
06:48 -0.3 -0.3 100 994.1 0.0000 0.0000
06:58 -0.2 -0.2 100 994.2 0.0000 0.0000
07:08 -0.2 -0.2 100 994.2 0.0000 0.0000
07:18 -0.2 -0.2 100 994.4 0.0000 0.0000
07:28 -0.4 -0.4 100 994.5 0.0000 0.0000
07:38 -0.5 -0.5 100 994.6 0.0000 0.0000
07:49 -0.6 -0.6 100 994.7 0.0000 0.0000
07:59 -0.7 -0.7 100 994.8 0.0000 0.0000
08:08 -0.6 -0.6 100 994.8 0.0000 0.0000
08:18 -0.4 -0.4 100 994.9 0.0000 0.0000
08:29 -0.2 -0.2 100 995 0.0000 0.0000
08:39 -0.1 -0.1 100 995.1 0.0000 0.0000
08:49 0 0 100 995.1 0.0000 0.0000
08:59 0 0 100 995.2 0.0000 0.0000
09:09 0.1 0.1 100 995.2 0.0000 0.0000
09:19 0.3 0.3 100 995.4 0.0000 0.0000
09:29 0.3 0.3 100 995.4 0.0000 0.0000
09:40 0.3 0.3 100 995.6 0.0000 0.0000
09:50 0.3 0.3 100 995.7 0.0000 0.0000
09:59 0.3 0.3 100 995.8 0.0000 0.0000
10:10 0.4 0.4 100 995.9 0.0000 0.0000
10:20 0.5 0.5 100 996 0.0000 0.0000
10:30 0.8 0.8 100 996 0.0000 0.0000
10:35 1 1 100 996.1 0.0000 0.0000
10:50 1.4 1.4 100 996.1 0.0000 0.0000
11:00 1.7 1.7 100 996.2 0.0000 0.0000
11:10 1.9 1.9 100 996.3 0.0000 0.0000
11:20 2.4 2.4 100 996.4 0.0000 0.0000
11:31 2.7 2.7 100 996.6 0.0000 0.0000
11:40 3 3 100 996.7 0.0000 0.0000
11:50 3 3 100 996.6 0.0000 0.0000
12:01 3 3 100 996.6 0.0000 0.0000
12:11 3 3 100 996.5 0.0000 0.0000
12:21 3 3 100 996.6 0.0000 0.0000
12:31 3.1 3.1 100 996.6 0.0000 0.0000
12:41 3.3 3.3 100 996.6 0.0000 0.0000
12:51 3.5 3.5 100 996.6 0.0000 0.0000
13:01 3.7 3.7 100 996.7 0.0000 0.0000
13:12 3.9 3.9 100 996.9 0.0000 0.0000
13:21 4.1 4.1 100 996.9 0.0000 0.0000
13:31 4.1 4.1 100 997 0.0000 0.0000
13:41 4.2 4.2 100 997.1 0.0000 0.0000
13:52 4.1 4.1 100 997.1 0.0000 0.0000
14:02 4 4 100 997.3 0.0000 0.0000
14:07 4 4 100 997.5 0.0000 0.0000
14:22 4.1 4.1 100 997.7 0.0000 0.0000
14:32 4.1 4.1 100 997.9 0.0000 0.0000
14:42 4.2 4.2 100 998.1 0.0000 0.0000
14:52 4.2 4.2 100 998.3 0.0000 0.0000
15:03 4.2 4.2 100 998.4 0.0000 0.0000
15:08 4.2 4.2 100 998.4 0.0000 0.0000
15:22 4.2 4.2 100 998.5 0.0000 0.0000
15:33 4.2 4.2 100 998.8 0.0000 0.0000
15:43 4.2 4.2 100 998.8 0.0000 0.0000
15:53 4.2 4.2 100 998.9 0.0000 0.0000
16:03 4.2 4.2 100 999 0.0000 0.0000
16:13 4.3 4.3 100 999.1 0.0000 0.0000
16:23 4.4 4.4 100 999.2 0.0000 0.0000
16:33 4.4 4.4 100 999.3 0.0000 0.0000
16:43 4.3 4.3 100 999.4 0.0000 0.0000
16:54 4.3 4.3 100 999.6 0.0000 0.0000
17:03 4.2 4.2 100 999.6 0.0000 0.0000
17:13 4.1 4.1 100 999.8 0.0000 0.0000
17:24 4 4 100 999.9 0.0000 0.0000
17:34 4.1 4.1 100 1000.1 0.0000 0.0000
17:44 4 4 100 1000.2 0.0000 0.0000
17:49 4 4 100 1000.3 0.0000 0.0000
18:04 4 4 100 1000.4 0.0000 0.0000
18:14 3.9 3.9 100 1000.6 0.0000 0.0000
18:24 3.7 3.7 100 1000.7 0.0000 0.0000
18:35 3.7 3.7 100 1000.8 0.0000 0.0000
18:45 3.6 3.6 100 1000.9 0.0000 0.0000
18:55 3.4 3.4 100 1001 0.0000 0.0000
19:04 3.3 3.3 100 1001.1 0.0000 0.0000
19:15 3.2 3.2 100 1001.3 0.0000 0.0000
19:25 3.1 3.1 100 1001.3 0.0000 0.0000
19:35 3 3 100 1001.5 0.0000 0.0000
19:45 3 3 100 1001.7 0.0000 0.0000
19:55 3.1 3.1 100 1001.8 0.0000 0.0000
20:05 3.1 3.1 100 1002 0.0000 0.0000
20:15 3.2 3.2 100 1002.1 0.0000 0.0000
20:26 3.2 3.2 100 1002.4 0.0000 0.0000
20:36 3.3 3.3 100 1002.6 0.0000 0.0000
20:45 3.2 3.2 100 1002.7 0.0000 0.0000
21:06 3.2 3.2 100 1003.2 0.0000 0.0000
21:16 3.1 3.1 100 1003.3 0.0000 0.0000
21:31 3.2 3.2 100 1003.7 0.0000 0.0000
21:42 3.2 3.2 100 1003.9 0.0000 0.0000
21:56 3.3 3.3 100 1004.2 0.0000 0.0000
22:06 3.2 3.2 100 1004.3 0.0000 0.0000
22:17 3.2 3.2 100 1004.6 0.0000 0.0000
22:27 3.1 3.1 100 1004.8 0.0000 0.0000
22:37 3.1 3.1 100 1004.9 0.0000 0.0000
22:47 3.1 3.1 100 1005 0.0000 0.0000
22:57 3.1 3.1 100 1005.2 0.0000 0.0000
23:07 3 3 100 1005.3 0.0000 0.0000
23:17 3 3 100 1005.5 0.0000 0.0000
23:28 2.8 2.8 100 1005.7 0.0000 0.0000
23:38 2.7 2.7 100 1005.9 0.0000 0.0000
23:48 2.6 2.6 100 1006.1 0.0000 0.0000
23:58 2.4 2.4 100 1006.4 0.0000 0.0000

DAY STATISTIC

2018-12-10
TEMPERATURE
AVERAGE
1.8
HIGH
4.4
16:23
LOW
-1.3
05:07
PRESSURE
AVERAGE
997.4
HIGH
1006.4
23:58
LOW
991.5
00:04
DEWPOINT
AVERAGE
1.8
HIGH
4.4
16:23
LOW
-1.3
05:07
HUMIDITY
AVERAGE
100
HIGH
100
00:04
LOW
100
00:04
PRECIPITATION
RAIN HOUR
0.0
RAIN DAY
0.0
TEMPERATURE (°C)
LOW
-1.3
HIGH
4.4
AVERAGE
1.8
PRESSURE (hpa)
LOW
991.5
HIGH
1006.4
AVERAGE
997.4
DEVICE